Página principal
METAR-TAF:

METAR-TAF

Aeroportos :

Ouagadougou, Burkina Faso

latitude: 12-21N, longitude: 001-31W, altura: 316 m

Observação actual do tempo

O boletim foi feito há 41 minutos, às 00:00 UTC
Vento calmo
Temperatura 24°C
Humidade 54%
Pressão 1011 hPa
Visibilidade: 8000 m

METAR: DFFD 140000Z 00000KT 8000 NSC 24/14 Q1011 NOSIG

Hora: 00:41 (00:41 UTC)

Previsão

O boletim foi feito há 1 hora e 41 minutos, às 23:00 UTC
Previsão válida de 14 às 00 UTC a 15 às 06 UTC
Vento 6 kt com direcção variável
Visibilidade: 8000 m
Temporariamente
de 14 às 06 UTC a 14 às 10 UTC
Visibilidade: 1400 m
bruma
Temporariamente
de 14 às 17 UTC a 14 às 20 UTC
Visibilidade: 4000 m
bruma

TAF: DFFD 132300Z 1400/1506 VRB06KT 8000 NSC TEMPO 1406/1410 1400 HZ TEMPO 1417/1420 4000 HZ

Observações e previsões do tempo de mais de 4000 aeroportos (mensagens METAR e TAF).

As estações disponíveis são os pontos amarelos e vermelhos sobre o mapa.

Mova o rato sobre o mapa para ver o nome da estação.

Depois clique no ponto para visualizar as observações e previsões meteorológicas.

Para alterar o mapa : clique nos botões verdes com uma cruz preta para aumentar o zoom; no botão verde com uma pitada de zoom; ou nas setas verdes para mapas adjacentes.


METAR-TAF: